sensor_id;sensor_type;location;lat;lon;timestamp;P1;durP1;ratioP1;P2;durP2;ratioP2
3811;SDS011;1921;49.368;11.068;2022-09-21T00:03:41;47.30;;;43.37;;
3811;SDS011;1921;49.368;11.068;2022-09-21T00:06:12;46.67;;;42.77;;
3811;SDS011;1921;49.368;11.068;2022-09-21T00:08:43;47.07;;;43.30;;
3811;SDS011;1921;49.368;11.068;2022-09-21T00:11:21;46.63;;;42.80;;
3811;SDS011;1921;49.368;11.068;2022-09-21T00:13:52;46.50;;;42.37;;
3811;SDS011;1921;49.368;11.068;2022-09-21T00:16:20;45.97;;;42.40;;
3811;SDS011;1921;49.368;11.068;2022-09-21T00:18:46;48.20;;;43.77;;
3811;SDS011;1921;49.368;11.068;2022-09-21T00:21:13;46.30;;;42.60;;
3811;SDS011;1921;49.368;11.068;2022-09-21T00:23:40;47.83;;;42.90;;
3811;SDS011;1921;49.368;11.068;2022-09-21T00:26:07;47.03;;;43.13;;
3811;SDS011;1921;49.368;11.068;2022-09-21T00:28:39;45.53;;;41.90;;
3811;SDS011;1921;49.368;11.068;2022-09-21T00:31:06;46.40;;;42.40;;
3811;SDS011;1921;49.368;11.068;2022-09-21T00:33:37;48.93;;;44.03;;
3811;SDS011;1921;49.368;11.068;2022-09-21T00:36:06;45.80;;;42.20;;
3811;SDS011;1921;49.368;11.068;2022-09-21T00:38:34;48.07;;;43.97;;
3811;SDS011;1921;49.368;11.068;2022-09-21T00:41:02;47.37;;;43.37;;
3811;SDS011;1921;49.368;11.068;2022-09-21T00:43:31;46.40;;;42.60;;
3811;SDS011;1921;49.368;11.068;2022-09-21T00:46:44;46.50;;;42.60;;
3811;SDS011;1921;49.368;11.068;2022-09-21T00:48:51;46.63;;;42.10;;
3811;SDS011;1921;49.368;11.068;2022-09-21T00:51:17;46.37;;;42.57;;
3811;SDS011;1921;49.368;11.068;2022-09-21T00:53:43;46.00;;;42.40;;
3811;SDS011;1921;49.368;11.068;2022-09-21T00:56:09;46.40;;;42.60;;
3811;SDS011;1921;49.368;11.068;2022-09-21T00:58:38;46.10;;;42.50;;
3811;SDS011;1921;49.368;11.068;2022-09-21T01:01:09;46.00;;;42.40;;
3811;SDS011;1921;49.368;11.068;2022-09-21T01:03:42;46.07;;;42.27;;
3811;SDS011;1921;49.368;11.068;2022-09-21T01:06:14;45.77;;;42.00;;
3811;SDS011;1921;49.368;11.068;2022-09-21T01:08:43;46.83;;;43.03;;
3811;SDS011;1921;49.368;11.068;2022-09-21T01:32:11;46.03;;;42.47;;
3811;SDS011;1921;49.368;11.068;2022-09-21T01:37:35;46.07;;;42.37;;
3811;SDS011;1921;49.368;11.068;2022-09-21T01:40:12;45.60;;;42.10;;
3811;SDS011;1921;49.368;11.068;2022-09-21T01:42:46;45.20;;;41.80;;
3811;SDS011;1921;49.368;11.068;2022-09-21T01:45:14;45.20;;;41.60;;
3811;SDS011;1921;49.368;11.068;2022-09-21T01:47:48;45.83;;;42.13;;
3811;SDS011;1921;49.368;11.068;2022-09-21T01:50:15;46.23;;;42.67;;
3811;SDS011;1921;49.368;11.068;2022-09-21T01:55:23;45.07;;;41.50;;
3811;SDS011;1921;49.368;11.068;2022-09-21T01:58:07;45.43;;;41.93;;
3811;SDS011;1921;49.368;11.068;2022-09-21T02:01:10;45.47;;;41.90;;
3811;SDS011;1921;49.368;11.068;2022-09-21T02:03:42;44.93;;;41.33;;
3811;SDS011;1921;49.368;11.068;2022-09-21T02:06:32;44.83;;;41.43;;
3811;SDS011;1921;49.368;11.068;2022-09-21T02:08:57;46.40;;;42.60;;
3811;SDS011;1921;49.368;11.068;2022-09-21T02:11:23;45.53;;;42.13;;
3811;SDS011;1921;49.368;11.068;2022-09-21T02:13:51;44.40;;;41.00;;
3811;SDS011;1921;49.368;11.068;2022-09-21T02:16:33;45.60;;;42.10;;
3811;SDS011;1921;49.368;11.068;2022-09-21T02:19:43;44.67;;;41.27;;
3811;SDS011;1921;49.368;11.068;2022-09-21T02:27:49;46.43;;;42.87;;
3811;SDS011;1921;49.368;11.068;2022-09-21T02:30:25;46.53;;;42.00;;
3811;SDS011;1921;49.368;11.068;2022-09-21T02:36:05;46.30;;;42.63;;
3811;SDS011;1921;49.368;11.068;2022-09-21T02:38:47;55.37;;;43.90;;
3811;SDS011;1921;49.368;11.068;2022-09-21T02:41:25;47.10;;;43.10;;
3811;SDS011;1921;49.368;11.068;2022-09-21T02:44:17;44.60;;;41.07;;
3811;SDS011;1921;49.368;11.068;2022-09-21T02:46:49;44.97;;;41.50;;
3811;SDS011;1921;49.368;11.068;2022-09-21T02:49:22;47.43;;;43.13;;
3811;SDS011;1921;49.368;11.068;2022-09-21T02:51:56;46.83;;;43.23;;
3811;SDS011;1921;49.368;11.068;2022-09-21T02:54:28;46.60;;;42.47;;
3811;SDS011;1921;49.368;11.068;2022-09-21T02:56:57;46.53;;;42.70;;
3811;SDS011;1921;49.368;11.068;2022-09-21T02:59:25;63.40;;;43.80;;
3811;SDS011;1921;49.368;11.068;2022-09-21T03:01:51;45.27;;;41.37;;
3811;SDS011;1921;49.368;11.068;2022-09-21T03:04:19;49.53;;;44.63;;
3811;SDS011;1921;49.368;11.068;2022-09-21T03:06:46;45.37;;;41.77;;
3811;SDS011;1921;49.368;11.068;2022-09-21T03:09:12;47.40;;;42.97;;
3811;SDS011;1921;49.368;11.068;2022-09-21T03:11:38;46.87;;;42.40;;
3811;SDS011;1921;49.368;11.068;2022-09-21T03:14:06;45.03;;;41.63;;
3811;SDS011;1921;49.368;11.068;2022-09-21T03:16:33;45.13;;;41.67;;
3811;SDS011;1921;49.368;11.068;2022-09-21T03:19:02;47.80;;;42.57;;
3811;SDS011;1921;49.368;11.068;2022-09-21T03:21:29;47.10;;;43.13;;
3811;SDS011;1921;49.368;11.068;2022-09-21T03:23:55;50.90;;;44.23;;
3811;SDS011;1921;49.368;11.068;2022-09-21T03:26:21;45.77;;;41.40;;
3811;SDS011;1921;49.368;11.068;2022-09-21T03:28:47;46.03;;;42.43;;
3811;SDS011;1921;49.368;11.068;2022-09-21T03:31:14;83.67;;;44.77;;
3811;SDS011;1921;49.368;11.068;2022-09-21T03:33:40;44.50;;;41.10;;
3811;SDS011;1921;49.368;11.068;2022-09-21T03:36:06;45.20;;;41.47;;
3811;SDS011;1921;49.368;11.068;2022-09-21T03:38:35;62.17;;;44.87;;
3811;SDS011;1921;49.368;11.068;2022-09-21T03:41:02;45.77;;;42.10;;
3811;SDS011;1921;49.368;11.068;2022-09-21T03:43:27;45.90;;;42.20;;
3811;SDS011;1921;49.368;11.068;2022-09-21T03:45:53;45.93;;;41.93;;
3811;SDS011;1921;49.368;11.068;2022-09-21T03:48:19;45.97;;;42.27;;
3811;SDS011;1921;49.368;11.068;2022-09-21T03:50:46;47.30;;;42.90;;
3811;SDS011;1921;49.368;11.068;2022-09-21T03:53:11;48.10;;;43.57;;
3811;SDS011;1921;49.368;11.068;2022-09-21T03:55:37;46.90;;;42.33;;
3811;SDS011;1921;49.368;11.068;2022-09-21T03:58:04;47.50;;;43.30;;
3811;SDS011;1921;49.368;11.068;2022-09-21T04:00:30;46.53;;;42.63;;
3811;SDS011;1921;49.368;11.068;2022-09-21T04:02:57;45.93;;;42.33;;
3811;SDS011;1921;49.368;11.068;2022-09-21T04:05:23;47.23;;;42.87;;
3811;SDS011;1921;49.368;11.068;2022-09-21T04:07:49;46.50;;;42.70;;
3811;SDS011;1921;49.368;11.068;2022-09-21T04:10:18;46.27;;;42.17;;
3811;SDS011;1921;49.368;11.068;2022-09-21T04:12:48;46.10;;;42.30;;
3811;SDS011;1921;49.368;11.068;2022-09-21T04:15:15;46.07;;;42.27;;
3811;SDS011;1921;49.368;11.068;2022-09-21T04:17:43;46.57;;;42.67;;
3811;SDS011;1921;49.368;11.068;2022-09-21T04:20:10;46.10;;;42.40;;
3811;SDS011;1921;49.368;11.068;2022-09-21T04:22:36;59.43;;;43.90;;
3811;SDS011;1921;49.368;11.068;2022-09-21T04:25:03;46.30;;;42.53;;
3811;SDS011;1921;49.368;11.068;2022-09-21T04:27:31;47.23;;;42.67;;
3811;SDS011;1921;49.368;11.068;2022-09-21T04:29:57;47.23;;;43.23;;
3811;SDS011;1921;49.368;11.068;2022-09-21T04:32:23;47.23;;;43.20;;
3811;SDS011;1921;49.368;11.068;2022-09-21T04:34:49;47.27;;;42.83;;
3811;SDS011;1921;49.368;11.068;2022-09-21T04:37:15;66.83;;;43.93;;
3811;SDS011;1921;49.368;11.068;2022-09-21T04:39:41;46.13;;;42.43;;
3811;SDS011;1921;49.368;11.068;2022-09-21T04:42:07;48.93;;;43.53;;
3811;SDS011;1921;49.368;11.068;2022-09-21T04:44:34;47.70;;;43.20;;
3811;SDS011;1921;49.368;11.068;2022-09-21T04:47:00;47.60;;;43.50;;
3811;SDS011;1921;49.368;11.068;2022-09-21T04:49:26;45.40;;;41.80;;
3811;SDS011;1921;49.368;11.068;2022-09-21T04:51:52;80.53;;;44.83;;
3811;SDS011;1921;49.368;11.068;2022-09-21T04:54:18;48.83;;;43.60;;
3811;SDS011;1921;49.368;11.068;2022-09-21T04:56:43;49.13;;;44.27;;
3811;SDS011;1921;49.368;11.068;2022-09-21T04:59:09;87.60;;;46.53;;
3811;SDS011;1921;49.368;11.068;2022-09-21T05:01:35;47.40;;;43.17;;
3811;SDS011;1921;49.368;11.068;2022-09-21T05:04:00;46.20;;;42.17;;
3811;SDS011;1921;49.368;11.068;2022-09-21T05:06:38;71.90;;;43.70;;
3811;SDS011;1921;49.368;11.068;2022-09-21T05:09:05;47.17;;;42.50;;
3811;SDS011;1921;49.368;11.068;2022-09-21T05:11:51;46.77;;;42.97;;
3811;SDS011;1921;49.368;11.068;2022-09-21T05:14:17;50.93;;;44.40;;
3811;SDS011;1921;49.368;11.068;2022-09-21T05:16:43;103.47;;;46.20;;
3811;SDS011;1921;49.368;11.068;2022-09-21T05:19:09;47.63;;;43.63;;
3811;SDS011;1921;49.368;11.068;2022-09-21T05:21:34;156.37;;;51.63;;
3811;SDS011;1921;49.368;11.068;2022-09-21T05:24:01;134.97;;;49.20;;
3811;SDS011;1921;49.368;11.068;2022-09-21T05:26:27;62.27;;;43.33;;
3811;SDS011;1921;49.368;11.068;2022-09-21T05:28:53;266.60;;;67.27;;
3811;SDS011;1921;49.368;11.068;2022-09-21T05:31:26;48.10;;;43.73;;
3811;SDS011;1921;49.368;11.068;2022-09-21T05:34:26;48.10;;;43.40;;
3811;SDS011;1921;49.368;11.068;2022-09-21T05:40:23;48.23;;;43.90;;
3811;SDS011;1921;49.368;11.068;2022-09-21T05:42:49;57.07;;;45.10;;
3811;SDS011;1921;49.368;11.068;2022-09-21T05:45:16;52.53;;;47.03;;
3811;SDS011;1921;49.368;11.068;2022-09-21T05:47:49;48.37;;;43.47;;
3811;SDS011;1921;49.368;11.068;2022-09-21T05:51:11;48.67;;;44.10;;
3811;SDS011;1921;49.368;11.068;2022-09-21T05:56:46;47.67;;;43.67;;
3811;SDS011;1921;49.368;11.068;2022-09-21T06:04:58;76.43;;;45.90;;
3811;SDS011;1921;49.368;11.068;2022-09-21T06:07:26;95.93;;;49.93;;
3811;SDS011;1921;49.368;11.068;2022-09-21T06:09:52;47.63;;;43.07;;
3811;SDS011;1921;49.368;11.068;2022-09-21T06:12:18;123.23;;;47.63;;
3811;SDS011;1921;49.368;11.068;2022-09-21T06:14:44;47.43;;;43.13;;
3811;SDS011;1921;49.368;11.068;2022-09-21T06:17:09;47.60;;;43.40;;
3811;SDS011;1921;49.368;11.068;2022-09-21T06:19:35;48.30;;;43.23;;
3811;SDS011;1921;49.368;11.068;2022-09-21T06:22:01;51.50;;;44.30;;
3811;SDS011;1921;49.368;11.068;2022-09-21T06:24:27;104.77;;;46.33;;
3811;SDS011;1921;49.368;11.068;2022-09-21T06:26:52;48.77;;;44.27;;
3811;SDS011;1921;49.368;11.068;2022-09-21T06:29:18;51.63;;;43.07;;
3811;SDS011;1921;49.368;11.068;2022-09-21T06:31:47;57.43;;;45.20;;
3811;SDS011;1921;49.368;11.068;2022-09-21T06:34:15;47.90;;;43.70;;
3811;SDS011;1921;49.368;11.068;2022-09-21T06:36:43;50.17;;;43.87;;
3811;SDS011;1921;49.368;11.068;2022-09-21T06:39:09;48.10;;;43.83;;
3811;SDS011;1921;49.368;11.068;2022-09-21T06:41:36;57.03;;;45.83;;
3811;SDS011;1921;49.368;11.068;2022-09-21T06:44:01;128.17;;;48.00;;
3811;SDS011;1921;49.368;11.068;2022-09-21T06:46:29;101.00;;;47.70;;
3811;SDS011;1921;49.368;11.068;2022-09-21T06:48:55;45.93;;;42.03;;
3811;SDS011;1921;49.368;11.068;2022-09-21T06:51:21;140.97;;;48.63;;
3811;SDS011;1921;49.368;11.068;2022-09-21T06:53:48;180.67;;;52.80;;
3811;SDS011;1921;49.368;11.068;2022-09-21T06:56:19;52.97;;;44.97;;
3811;SDS011;1921;49.368;11.068;2022-09-21T06:58:45;104.27;;;46.50;;
3811;SDS011;1921;49.368;11.068;2022-09-21T07:01:12;50.33;;;43.60;;
3811;SDS011;1921;49.368;11.068;2022-09-21T07:03:39;202.27;;;54.23;;
3811;SDS011;1921;49.368;11.068;2022-09-21T07:06:07;155.00;;;54.13;;
3811;SDS011;1921;49.368;11.068;2022-09-21T07:08:39;103.87;;;48.43;;
3811;SDS011;1921;49.368;11.068;2022-09-21T07:11:09;50.87;;;46.07;;
3811;SDS011;1921;49.368;11.068;2022-09-21T07:13:37;75.53;;;48.00;;
3811;SDS011;1921;49.368;11.068;2022-09-21T07:16:03;138.90;;;52.53;;
3811;SDS011;1921;49.368;11.068;2022-09-21T07:18:35;71.20;;;47.93;;
3811;SDS011;1921;49.368;11.068;2022-09-21T07:21:03;109.67;;;49.87;;
3811;SDS011;1921;49.368;11.068;2022-09-21T07:23:31;100.53;;;50.20;;
3811;SDS011;1921;49.368;11.068;2022-09-21T07:26:01;82.77;;;46.77;;
3811;SDS011;1921;49.368;11.068;2022-09-21T07:28:30;117.17;;;51.50;;
3811;SDS011;1921;49.368;11.068;2022-09-21T07:30:57;105.53;;;50.60;;
3811;SDS011;1921;49.368;11.068;2022-09-21T07:33:23;84.57;;;49.60;;
3811;SDS011;1921;49.368;11.068;2022-09-21T07:35:53;71.93;;;47.80;;
3811;SDS011;1921;49.368;11.068;2022-09-21T07:38:22;90.90;;;46.10;;
3811;SDS011;1921;49.368;11.068;2022-09-21T07:40:48;51.27;;;46.13;;
3811;SDS011;1921;49.368;11.068;2022-09-21T07:43:14;88.27;;;47.07;;
3811;SDS011;1921;49.368;11.068;2022-09-21T07:45:40;79.17;;;47.57;;
3811;SDS011;1921;49.368;11.068;2022-09-21T07:48:06;112.63;;;48.93;;
3811;SDS011;1921;49.368;11.068;2022-09-21T07:50:33;50.83;;;45.37;;
3811;SDS011;1921;49.368;11.068;2022-09-21T07:53:00;56.93;;;46.90;;
3811;SDS011;1921;49.368;11.068;2022-09-21T07:55:27;52.23;;;46.63;;
3811;SDS011;1921;49.368;11.068;2022-09-21T07:57:53;51.07;;;45.77;;
3811;SDS011;1921;49.368;11.068;2022-09-21T08:00:37;49.63;;;44.83;;
3811;SDS011;1921;49.368;11.068;2022-09-21T08:03:05;51.53;;;45.87;;
3811;SDS011;1921;49.368;11.068;2022-09-21T08:05:31;54.17;;;46.43;;
3811;SDS011;1921;49.368;11.068;2022-09-21T08:08:00;50.70;;;45.70;;
3811;SDS011;1921;49.368;11.068;2022-09-21T08:10:26;84.97;;;48.00;;
3811;SDS011;1921;49.368;11.068;2022-09-21T08:12:54;52.37;;;47.47;;
3811;SDS011;1921;49.368;11.068;2022-09-21T08:15:21;48.67;;;43.93;;
3811;SDS011;1921;49.368;11.068;2022-09-21T08:17:47;61.93;;;48.20;;
3811;SDS011;1921;49.368;11.068;2022-09-21T08:20:12;53.73;;;47.40;;
3811;SDS011;1921;49.368;11.068;2022-09-21T08:22:39;52.83;;;47.27;;
3811;SDS011;1921;49.368;11.068;2022-09-21T08:25:05;53.90;;;46.13;;
3811;SDS011;1921;49.368;11.068;2022-09-21T08:27:31;51.93;;;46.63;;
3811;SDS011;1921;49.368;11.068;2022-09-21T08:29:57;53.10;;;47.73;;
3811;SDS011;1921;49.368;11.068;2022-09-21T08:32:24;57.70;;;48.90;;
3811;SDS011;1921;49.368;11.068;2022-09-21T08:34:50;53.50;;;47.67;;
3811;SDS011;1921;49.368;11.068;2022-09-21T08:37:16;53.30;;;47.70;;
3811;SDS011;1921;49.368;11.068;2022-09-21T08:39:43;72.43;;;50.50;;
3811;SDS011;1921;49.368;11.068;2022-09-21T08:45:35;53.97;;;48.07;;
3811;SDS011;1921;49.368;11.068;2022-09-21T08:48:13;58.83;;;49.57;;
3811;SDS011;1921;49.368;11.068;2022-09-21T08:50:48;58.33;;;48.60;;
3811;SDS011;1921;49.368;11.068;2022-09-21T08:55:57;54.43;;;48.43;;
3811;SDS011;1921;49.368;11.068;2022-09-21T08:58:24;54.73;;;48.07;;
3811;SDS011;1921;49.368;11.068;2022-09-21T09:06:41;54.67;;;48.77;;
3811;SDS011;1921;49.368;11.068;2022-09-21T09:16:25;55.00;;;48.33;;
3811;SDS011;1921;49.368;11.068;2022-09-21T09:18:44;54.50;;;48.50;;
3811;SDS011;1921;49.368;11.068;2022-09-21T09:21:24;56.50;;;50.47;;
3811;SDS011;1921;49.368;11.068;2022-09-21T09:26:59;55.20;;;49.20;;
3811;SDS011;1921;49.368;11.068;2022-09-21T09:50:39;55.27;;;49.23;;
3811;SDS011;1921;49.368;11.068;2022-09-21T09:55:45;59.00;;;50.80;;
3811;SDS011;1921;49.368;11.068;2022-09-21T09:58:16;59.57;;;50.80;;
3811;SDS011;1921;49.368;11.068;2022-09-21T10:01:29;62.30;;;52.10;;
3811;SDS011;1921;49.368;11.068;2022-09-21T10:04:08;70.43;;;52.10;;
3811;SDS011;1921;49.368;11.068;2022-09-21T10:06:36;61.80;;;51.60;;
3811;SDS011;1921;49.368;11.068;2022-09-21T10:11:58;61.07;;;51.37;;
3811;SDS011;1921;49.368;11.068;2022-09-21T10:14:55;63.70;;;52.60;;
3811;SDS011;1921;49.368;11.068;2022-09-21T10:17:24;64.00;;;52.63;;
3811;SDS011;1921;49.368;11.068;2022-09-21T10:19:58;64.47;;;52.00;;
3811;SDS011;1921;49.368;11.068;2022-09-21T10:22:26;62.60;;;52.30;;
3811;SDS011;1921;49.368;11.068;2022-09-21T10:24:54;64.37;;;52.83;;
3811;SDS011;1921;49.368;11.068;2022-09-21T10:27:24;63.40;;;52.87;;
3811;SDS011;1921;49.368;11.068;2022-09-21T10:29:53;62.83;;;52.17;;
3811;SDS011;1921;49.368;11.068;2022-09-21T10:32:26;62.77;;;52.37;;
3811;SDS011;1921;49.368;11.068;2022-09-21T10:37:44;62.87;;;52.10;;
3811;SDS011;1921;49.368;11.068;2022-09-21T10:42:50;62.10;;;51.77;;
3811;SDS011;1921;49.368;11.068;2022-09-21T10:45:20;61.30;;;51.80;;
3811;SDS011;1921;49.368;11.068;2022-09-21T10:48:06;61.77;;;51.30;;
3811;SDS011;1921;49.368;11.068;2022-09-21T10:50:46;61.77;;;52.03;;
3811;SDS011;1921;49.368;11.068;2022-09-21T10:53:22;62.90;;;51.40;;
3811;SDS011;1921;49.368;11.068;2022-09-21T10:56:01;61.17;;;51.50;;
3811;SDS011;1921;49.368;11.068;2022-09-21T10:58:36;62.10;;;51.60;;
3811;SDS011;1921;49.368;11.068;2022-09-21T11:01:10;59.10;;;50.63;;
3811;SDS011;1921;49.368;11.068;2022-09-21T11:03:50;61.37;;;50.80;;
3811;SDS011;1921;49.368;11.068;2022-09-21T11:06:29;60.00;;;50.70;;
3811;SDS011;1921;49.368;11.068;2022-09-21T11:12:28;61.30;;;50.20;;
3811;SDS011;1921;49.368;11.068;2022-09-21T11:27:29;61.07;;;50.97;;
3811;SDS011;1921;49.368;11.068;2022-09-21T11:30:14;60.60;;;50.77;;
3811;SDS011;1921;49.368;11.068;2022-09-21T11:38:38;59.37;;;50.77;;
3811;SDS011;1921;49.368;11.068;2022-09-21T11:44:32;62.07;;;51.67;;
3811;SDS011;1921;49.368;11.068;2022-09-21T11:47:36;61.93;;;51.53;;
3811;SDS011;1921;49.368;11.068;2022-09-21T12:04:27;59.70;;;50.33;;
3811;SDS011;1921;49.368;11.068;2022-09-21T12:09:57;55.50;;;48.90;;
3811;SDS011;1921;49.368;11.068;2022-09-21T12:21:43;56.87;;;48.53;;
3811;SDS011;1921;49.368;11.068;2022-09-21T12:24:18;53.90;;;48.00;;
3811;SDS011;1921;49.368;11.068;2022-09-21T12:26:51;55.63;;;49.00;;
3811;SDS011;1921;49.368;11.068;2022-09-21T12:34:34;55.63;;;49.10;;
3811;SDS011;1921;49.368;11.068;2022-09-21T12:37:13;56.07;;;49.17;;
3811;SDS011;1921;49.368;11.068;2022-09-21T12:39:46;61.27;;;49.80;;
3811;SDS011;1921;49.368;11.068;2022-09-21T12:42:27;58.50;;;49.90;;
3811;SDS011;1921;49.368;11.068;2022-09-21T12:45:21;60.37;;;50.37;;
3811;SDS011;1921;49.368;11.068;2022-09-21T12:48:00;66.50;;;51.50;;
3811;SDS011;1921;49.368;11.068;2022-09-21T12:53:19;62.07;;;51.37;;
3811;SDS011;1921;49.368;11.068;2022-09-21T13:01:32;59.30;;;50.30;;
3811;SDS011;1921;49.368;11.068;2022-09-21T13:04:27;58.50;;;50.10;;
3811;SDS011;1921;49.368;11.068;2022-09-21T13:10:05;57.50;;;49.53;;
3811;SDS011;1921;49.368;11.068;2022-09-21T13:12:40;55.03;;;48.97;;
3811;SDS011;1921;49.368;11.068;2022-09-21T13:15:21;54.27;;;48.27;;
3811;SDS011;1921;49.368;11.068;2022-09-21T13:18:01;54.27;;;48.10;;
3811;SDS011;1921;49.368;11.068;2022-09-21T13:20:38;53.40;;;47.60;;
3811;SDS011;1921;49.368;11.068;2022-09-21T13:23:05;53.97;;;48.13;;
3811;SDS011;1921;49.368;11.068;2022-09-21T13:25:49;54.43;;;48.40;;
3811;SDS011;1921;49.368;11.068;2022-09-21T13:28:58;53.10;;;47.40;;
3811;SDS011;1921;49.368;11.068;2022-09-21T13:31:54;52.50;;;46.90;;
3811;SDS011;1921;49.368;11.068;2022-09-21T13:34:36;52.93;;;47.03;;
3811;SDS011;1921;49.368;11.068;2022-09-21T13:39:41;52.57;;;46.97;;
3811;SDS011;1921;49.368;11.068;2022-09-21T13:44:59;52.27;;;46.77;;
3811;SDS011;1921;49.368;11.068;2022-09-21T13:47:48;52.40;;;46.90;;
3811;SDS011;1921;49.368;11.068;2022-09-21T13:50:22;53.13;;;47.33;;
3811;SDS011;1921;49.368;11.068;2022-09-21T13:53:02;67.43;;;47.87;;
3811;SDS011;1921;49.368;11.068;2022-09-21T13:55:34;55.77;;;48.47;;
3811;SDS011;1921;49.368;11.068;2022-09-21T13:58:05;56.53;;;48.97;;
3811;SDS011;1921;49.368;11.068;2022-09-21T14:01:05;58.00;;;49.33;;
3811;SDS011;1921;49.368;11.068;2022-09-21T14:03:51;60.67;;;49.57;;
3811;SDS011;1921;49.368;11.068;2022-09-21T14:06:25;63.40;;;50.30;;
3811;SDS011;1921;49.368;11.068;2022-09-21T14:09:49;61.37;;;50.00;;
3811;SDS011;1921;49.368;11.068;2022-09-21T14:12:05;59.77;;;50.37;;
3811;SDS011;1921;49.368;11.068;2022-09-21T14:14:43;59.20;;;50.07;;
3811;SDS011;1921;49.368;11.068;2022-09-21T14:23:33;61.50;;;50.80;;
3811;SDS011;1921;49.368;11.068;2022-09-21T14:26:01;61.30;;;50.80;;
3811;SDS011;1921;49.368;11.068;2022-09-21T14:29:18;60.00;;;50.57;;
3811;SDS011;1921;49.368;11.068;2022-09-21T14:31:59;60.10;;;50.67;;
3811;SDS011;1921;49.368;11.068;2022-09-21T14:34:30;59.40;;;50.10;;
3811;SDS011;1921;49.368;11.068;2022-09-21T14:37:02;58.10;;;49.23;;
3811;SDS011;1921;49.368;11.068;2022-09-21T14:39:44;58.17;;;49.80;;
3811;SDS011;1921;49.368;11.068;2022-09-21T14:42:14;57.87;;;49.60;;
3811;SDS011;1921;49.368;11.068;2022-09-21T14:44:43;57.30;;;49.50;;
3811;SDS011;1921;49.368;11.068;2022-09-21T14:47:31;57.27;;;49.70;;
3811;SDS011;1921;49.368;11.068;2022-09-21T14:53:50;57.60;;;49.07;;
3811;SDS011;1921;49.368;11.068;2022-09-21T15:01:37;58.37;;;49.90;;
3811;SDS011;1921;49.368;11.068;2022-09-21T15:07:19;55.70;;;49.23;;
3811;SDS011;1921;49.368;11.068;2022-09-21T15:18:58;52.80;;;47.10;;
3811;SDS011;1921;49.368;11.068;2022-09-21T15:21:46;52.73;;;47.13;;
3811;SDS011;1921;49.368;11.068;2022-09-21T15:24:35;52.27;;;46.77;;
3811;SDS011;1921;49.368;11.068;2022-09-21T15:27:21;52.30;;;46.80;;
3811;SDS011;1921;49.368;11.068;2022-09-21T15:30:00;52.20;;;46.70;;
3811;SDS011;1921;49.368;11.068;2022-09-21T15:32:39;52.50;;;46.90;;
3811;SDS011;1921;49.368;11.068;2022-09-21T15:37:41;52.07;;;46.63;;
3811;SDS011;1921;49.368;11.068;2022-09-21T15:43:00;52.87;;;47.27;;
3811;SDS011;1921;49.368;11.068;2022-09-21T15:45:30;52.53;;;47.03;;
3811;SDS011;1921;49.368;11.068;2022-09-21T15:48:20;52.73;;;47.17;;
3811;SDS011;1921;49.368;11.068;2022-09-21T15:50:49;51.90;;;46.50;;
3811;SDS011;1921;49.368;11.068;2022-09-21T15:53:27;52.53;;;46.80;;
3811;SDS011;1921;49.368;11.068;2022-09-21T15:56:01;52.97;;;47.27;;
3811;SDS011;1921;49.368;11.068;2022-09-21T15:58:34;53.57;;;47.77;;
3811;SDS011;1921;49.368;11.068;2022-09-21T16:01:09;53.93;;;48.00;;
3811;SDS011;1921;49.368;11.068;2022-09-21T16:03:44;54.40;;;48.33;;
3811;SDS011;1921;49.368;11.068;2022-09-21T16:11:52;54.87;;;48.57;;
3811;SDS011;1921;49.368;11.068;2022-09-21T16:14:19;58.80;;;49.33;;
3811;SDS011;1921;49.368;11.068;2022-09-21T16:22:28;54.03;;;48.13;;
3811;SDS011;1921;49.368;11.068;2022-09-21T16:25:24;54.97;;;48.17;;
3811;SDS011;1921;49.368;11.068;2022-09-21T16:28:00;53.50;;;47.70;;
3811;SDS011;1921;49.368;11.068;2022-09-21T16:38:44;52.40;;;46.90;;
3811;SDS011;1921;49.368;11.068;2022-09-21T16:41:25;52.57;;;47.07;;
3811;SDS011;1921;49.368;11.068;2022-09-21T16:43:58;53.50;;;47.80;;
3811;SDS011;1921;49.368;11.068;2022-09-21T16:46:24;55.10;;;49.03;;
3811;SDS011;1921;49.368;11.068;2022-09-21T16:48:51;54.60;;;48.60;;
3811;SDS011;1921;49.368;11.068;2022-09-21T16:51:19;52.47;;;47.00;;
3811;SDS011;1921;49.368;11.068;2022-09-21T16:53:48;54.43;;;48.57;;
3811;SDS011;1921;49.368;11.068;2022-09-21T16:56:15;52.07;;;46.73;;
3811;SDS011;1921;49.368;11.068;2022-09-21T16:58:42;56.47;;;48.37;;
3811;SDS011;1921;49.368;11.068;2022-09-21T17:01:12;51.90;;;46.60;;
3811;SDS011;1921;49.368;11.068;2022-09-21T17:03:42;52.30;;;46.90;;
3811;SDS011;1921;49.368;11.068;2022-09-21T17:06:20;52.43;;;47.03;;
3811;SDS011;1921;49.368;11.068;2022-09-21T17:08:47;53.87;;;48.27;;
3811;SDS011;1921;49.368;11.068;2022-09-21T17:11:17;51.17;;;46.07;;
3811;SDS011;1921;49.368;11.068;2022-09-21T17:13:47;51.10;;;46.00;;
3811;SDS011;1921;49.368;11.068;2022-09-21T17:16:14;50.67;;;45.67;;
3811;SDS011;1921;49.368;11.068;2022-09-21T17:18:46;50.83;;;45.83;;
3811;SDS011;1921;49.368;11.068;2022-09-21T17:21:13;50.80;;;45.70;;
3811;SDS011;1921;49.368;11.068;2022-09-21T17:23:40;50.70;;;45.70;;
3811;SDS011;1921;49.368;11.068;2022-09-21T17:26:13;50.50;;;45.30;;
3811;SDS011;1921;49.368;11.068;2022-09-21T17:28:41;50.13;;;45.27;;
3811;SDS011;1921;49.368;11.068;2022-09-21T17:31:12;51.07;;;45.87;;
3811;SDS011;1921;49.368;11.068;2022-09-21T17:33:40;50.07;;;45.17;;
3811;SDS011;1921;49.368;11.068;2022-09-21T17:36:11;49.50;;;44.77;;
3811;SDS011;1921;49.368;11.068;2022-09-21T17:38:38;62.93;;;51.20;;
3811;SDS011;1921;49.368;11.068;2022-09-21T17:41:10;69.50;;;53.03;;
3811;SDS011;1921;49.368;11.068;2022-09-21T17:43:58;51.77;;;46.30;;
3811;SDS011;1921;49.368;11.068;2022-09-21T17:46:43;51.00;;;45.60;;
3811;SDS011;1921;49.368;11.068;2022-09-21T17:49:29;50.43;;;45.43;;
3811;SDS011;1921;49.368;11.068;2022-09-21T17:51:55;50.53;;;45.63;;
3811;SDS011;1921;49.368;11.068;2022-09-21T17:54:40;51.83;;;46.40;;
3811;SDS011;1921;49.368;11.068;2022-09-21T17:57:10;50.73;;;45.83;;
3811;SDS011;1921;49.368;11.068;2022-09-21T18:00:12;50.23;;;45.33;;
3811;SDS011;1921;49.368;11.068;2022-09-21T18:02:47;50.00;;;45.07;;
3811;SDS011;1921;49.368;11.068;2022-09-21T18:05:22;50.63;;;45.73;;
3811;SDS011;1921;49.368;11.068;2022-09-21T18:07:51;51.03;;;46.00;;
3811;SDS011;1921;49.368;11.068;2022-09-21T18:10:18;51.13;;;45.47;;
3811;SDS011;1921;49.368;11.068;2022-09-21T18:16:07;50.07;;;45.27;;
3811;SDS011;1921;49.368;11.068;2022-09-21T18:21:35;49.77;;;45.10;;
3811;SDS011;1921;49.368;11.068;2022-09-21T18:26:45;89.37;;;57.60;;
3811;SDS011;1921;49.368;11.068;2022-09-21T18:29:21;53.13;;;47.73;;
3811;SDS011;1921;49.368;11.068;2022-09-21T18:32:01;52.63;;;47.43;;
3811;SDS011;1921;49.368;11.068;2022-09-21T18:38:11;52.07;;;47.07;;
3811;SDS011;1921;49.368;11.068;2022-09-21T18:46:58;51.57;;;46.53;;
3811;SDS011;1921;49.368;11.068;2022-09-21T18:52:29;50.43;;;45.80;;
3811;SDS011;1921;49.368;11.068;2022-09-21T18:55:25;51.17;;;46.17;;
3811;SDS011;1921;49.368;11.068;2022-09-21T18:57:55;51.13;;;46.30;;
3811;SDS011;1921;49.368;11.068;2022-09-21T19:00:23;51.30;;;46.20;;
3811;SDS011;1921;49.368;11.068;2022-09-21T19:02:55;49.33;;;44.83;;
3811;SDS011;1921;49.368;11.068;2022-09-21T19:05:25;50.17;;;45.57;;
3811;SDS011;1921;49.368;11.068;2022-09-21T19:07:53;50.60;;;46.00;;
3811;SDS011;1921;49.368;11.068;2022-09-21T19:10:52;50.63;;;45.70;;
3811;SDS011;1921;49.368;11.068;2022-09-21T19:16:31;49.97;;;45.33;;
3811;SDS011;1921;49.368;11.068;2022-09-21T19:27:39;50.23;;;45.53;;